• Join FlightAware (Why Join?)
  • Login
  • US Flag 
10:20PM EDT


 

Airport Tracker/Info


-or-


 

Live Flight TrackerFlight Track Log ✈ FLG3861 ✈ 15-Sep-2013 ✈ KDTW - KBGM

Flight Track Log - Related Links

Times and Time Zones

All times are in EDT time to prevent confusion due to time zone crossing. See the FLG3861 flight status page for this flight to view local times or setup timezone preferences in your user account.

Time Position Orientation Groundspeed Altitude Reporting Facility
EDT Latitude Longitude Course Direction KTS MPH feet Rate Location/Type
10:31PM 42.2261 -83.3531 32° Northeast 152 175 1,400  Level Cleveland Center
10:32PM 42.2664 -83.3192 32° Northeast 229 264 2,700 1,260 Climbing Cleveland Center
10:32PM 42.2603 -83.3206 190° South 250 288 2,600 2,280 Descending Cleveland Center
10:33PM 42.3167 -83.2658 36° Northeast 247 284 5,100 2,580 Climbing Cleveland Center
10:34PM 42.3631 -83.1950 48° Northeast 270 311 7,900 2,580 Climbing Cleveland Center
10:35PM 42.3644 -83.0808 89° East 297 342 10,400 1,860 Climbing Cleveland Center
10:36PM 42.3647 -82.9494 90° East 345 397 11,800 1,500 Climbing Cleveland Center
10:37PM 42.3575 -82.8078 94° East 374 430 13,500 1,500 Climbing Cleveland Center
10:38PM 42.3400 -82.6583 99° East 396 456 14,900 1,320 Climbing Cleveland Center
10:39PM 42.3261 -82.5022 97° East 412 474 16,200 1,380 Climbing Cleveland Center
10:40PM 42.3122 -82.3406 97° East 430 495 17,800 1,200 Climbing Cleveland Center
10:41PM 42.3092 -82.1403 91° East 447 514 18,700 1,080 Climbing Cleveland Center
10:42PM 42.3103 -81.9814 89° East 452 520 20,100 1,440 Climbing Cleveland Center
10:43PM 42.3119 -81.8117 89° East 448 516 21,700 1,260 Climbing Cleveland Center
10:44PM 42.3128 -81.6411 90° East 449 517 22,700 1,260 Climbing Cleveland Center
10:45PM 42.3133 -81.4736 90° East 444 511 24,300 1,020 Climbing Cleveland Center
10:46PM 42.3133 -81.3094 90° East 436 502 24,800 480 Climbing Cleveland Center
10:47PM 42.3142 -81.1333 90° East 457 526 25,300 480 Climbing Cleveland Center
10:48PM 42.3139 -80.9550 90° East 468 539 25,800 480 Climbing Cleveland Center
10:49PM 42.3150 -80.7736 89° East 476 548 26,300 480 Climbing Cleveland Center
10:50PM 42.3147 -80.5911 90° East 479 551 26,800 300 Climbing Cleveland Center
10:51PM 42.3133 -80.4058 91° East 488 562 27,000 60 Climbing Cleveland Center
10:52PM 42.3128 -80.2172 90° East 497 572 27,000  Level Cleveland Center
10:53PM 42.3117 -80.0250 90° East 505 581 27,000  Level Cleveland Center
10:54PM 42.3100 -79.8408 91° East 507 583 27,000  Level Cleveland Center
10:55PM 42.3075 -79.6511 91° East 507 583 27,000  Level Cleveland Center
10:56PM 42.3058 -79.4614 91° East 508 585 27,000  Level Cleveland Center
10:57PM 42.3019 -79.2708 92° East 510 587 27,000  Level Cleveland Center
10:58PM 42.2992 -79.0408 91° East 514 592 27,000  Level Cleveland Center
10:59PM 42.2956 -78.8753 92° East 512 589 27,000  Level Cleveland Center
11:00PM 42.2925 -78.6856 91° East 510 587 27,000  Level Cleveland Center
11:01PM 42.2883 -78.4958 92° East 509 586 27,000  Level Cleveland Center
11:02PM 42.2853 -78.3064 91° East 507 583 27,000  Level Cleveland Center
11:03PM 42.2789 -78.0828 92° East 503 579 27,000  Level Cleveland Center
11:04PM 42.2742 -77.8942 92° East 506 582 27,000 -1,200 Level Cleveland Center
11:05PM 42.2692 -77.7089 92° East 503 579 24,600 -2,580 Descending Cleveland Center
11:06PM 42.2633 -77.5272 92° East 496 571 21,900 -2,700 Descending Cleveland Center
11:07PM 42.2586 -77.3478 92° East 488 562 19,200 -2,400 Descending Cleveland Center
11:09PM 42.2533 -77.1706 92° East 479 551 17,100 -1,080 Descending Cleveland Center
11:10PM 42.2478 -76.9992 92° East 465 535 17,100 -60 Level Cleveland Center
11:11PM 42.2414 -76.8289 93° East 459 528 17,000 -1,380 Descending Cleveland Center
11:12PM 42.2356 -76.6672 93° East 443 510 14,300 -3,060 Descending Cleveland Center
11:13PM 42.2581 -76.5300 77° East 391 450 10,900 -2,340 Descending Cleveland Center
11:14PM 42.2794 -76.4133 76° East 322 371 9,600 -1,860 Descending Cleveland Center
11:14PM 42.2911 -76.3239 80° East 305 351 7,600 -2,640 Descending New York Center
11:15PM 42.2931 -76.2400 88° East 255 293 4,900 -1,920 Descending New York Center
11:16PM 42.2944 -76.1586 89° East 227 261 3,800 -900 Descending New York Center
11:17PM 42.2936 -76.0858 91° East 206 237 3,100 -420 Descending New York Center
11:18PM 42.2708 -76.0364 122° Southeast 170 196 3,000 -420 Descending New York Center
11:19PM 42.2428 -76.0117 147° Southeast 151 174 2,300 -720 Descending New York Center